createdAt,value
2018-08-18T00:01:54.690Z,81.94
2018-08-18T00:04:35.020Z,81.91
2018-08-18T00:07:05.166Z,81.43
2018-08-18T00:09:35.179Z,81.86
2018-08-18T00:12:05.394Z,81.12
2018-08-18T00:14:35.431Z,81.55
2018-08-18T00:17:06.694Z,81.75
2018-08-18T00:19:37.743Z,81.36
2018-08-18T00:22:07.758Z,81.94
2018-08-18T00:24:45.265Z,82.49
2018-08-18T00:27:15.296Z,82.69
2018-08-18T00:29:45.330Z,83.06
2018-08-18T00:32:15.306Z,83.41
2018-08-18T00:34:49.410Z,83.52
2018-08-18T00:37:19.489Z,83.87
2018-08-18T00:39:49.586Z,83.81
2018-08-18T00:42:19.586Z,84.73
2018-08-18T00:44:49.598Z,84.55
2018-08-18T00:47:19.655Z,84.79
2018-08-18T00:49:49.675Z,85.30
2018-08-18T00:52:19.821Z,85.66
2018-08-18T00:54:49.864Z,86.05
2018-08-18T00:57:30.057Z,85.70
2018-08-18T01:00:00.268Z,85.62
2018-08-18T01:02:30.397Z,84.85
2018-08-18T01:05:02.269Z,85.15
2018-08-18T01:07:33.402Z,85.50
2018-08-18T01:10:03.799Z,85.42
2018-08-18T01:12:35.257Z,85.66
2018-08-18T01:15:08.089Z,85.80
2018-08-18T01:17:38.334Z,85.58
2018-08-18T01:20:08.808Z,85.99
2018-08-18T01:22:38.995Z,85.93
2018-08-18T01:25:09.000Z,86.37
2018-08-18T01:27:50.806Z,84.92
2018-08-18T01:30:20.875Z,84.85
2018-08-18T01:32:50.954Z,84.25
2018-08-18T01:35:22.453Z,84.00
2018-08-18T01:37:52.526Z,83.73
2018-08-18T01:40:22.543Z,83.96
2018-08-18T01:42:52.591Z,84.66
2018-08-18T01:45:22.710Z,84.89
2018-08-18T01:47:52.758Z,84.60
2018-08-18T01:50:22.810Z,84.86
2018-08-18T01:52:52.858Z,84.93
2018-08-18T01:55:22.886Z,84.69
2018-08-18T01:57:52.965Z,84.64
2018-08-18T02:00:28.222Z,84.58
2018-08-18T02:02:58.283Z,84.79
2018-08-18T02:05:28.408Z,85.23
2018-08-18T02:07:58.669Z,84.98
2018-08-18T02:10:28.682Z,84.41
2018-08-18T02:13:03.926Z,83.93
2018-08-18T02:15:34.191Z,83.79
2018-08-18T02:18:04.308Z,84.42
2018-08-18T02:20:34.343Z,83.47
2018-08-18T02:23:04.345Z,83.93
2018-08-18T02:25:34.881Z,84.01
2018-08-18T02:28:05.161Z,83.74
2018-08-18T02:30:35.254Z,83.99
2018-08-18T02:33:05.417Z,84.41
2018-08-18T02:35:35.550Z,84.17
2018-08-18T02:38:06.066Z,84.34
2018-08-18T02:40:36.240Z,84.66
2018-08-18T02:43:22.403Z,84.58
2018-08-18T02:45:52.433Z,84.69
2018-08-18T02:48:22.494Z,84.28
2018-08-18T02:50:53.013Z,84.77
2018-08-18T02:53:28.759Z,84.76
2018-08-18T02:55:58.762Z,85.04
2018-08-18T02:58:28.770Z,85.02
2018-08-18T03:00:58.794Z,84.99
2018-08-18T03:03:28.778Z,84.61
2018-08-18T03:06:02.832Z,84.84
2018-08-18T03:08:32.854Z,84.90
2018-08-18T03:11:02.916Z,85.29
2018-08-18T03:13:32.917Z,85.85
2018-08-18T03:16:04.162Z,85.43
2018-08-18T03:18:54.172Z,86.03
2018-08-18T03:21:30.601Z,86.65
2018-08-18T03:24:13.059Z,87.02
2018-08-18T03:26:46.193Z,87.90
2018-08-18T03:29:16.848Z,87.76
2018-08-18T03:31:47.282Z,87.73
2018-08-18T03:34:17.738Z,88.33
2018-08-18T03:36:54.488Z,88.57
2018-08-18T03:39:29.697Z,88.31
2018-08-18T03:42:02.067Z,88.70
2018-08-18T03:44:32.253Z,88.37
2018-08-18T03:47:02.238Z,88.76
2018-08-18T03:49:32.293Z,89.03
2018-08-18T03:52:02.360Z,88.60
2018-08-18T03:54:32.472Z,87.95
2018-08-18T03:57:02.521Z,87.46
2018-08-18T03:59:32.570Z,87.77
2018-08-18T04:02:02.959Z,87.70
2018-08-18T04:04:34.347Z,87.75
2018-08-18T04:07:05.639Z,87.45
2018-08-18T04:09:36.859Z,87.73
2018-08-18T04:12:08.483Z,87.71
2018-08-18T04:14:42.653Z,87.74
2018-08-18T04:17:30.024Z,87.64
2018-08-18T04:20:00.094Z,87.35
2018-08-18T04:22:30.245Z,87.31
2018-08-18T04:25:00.336Z,87.55
2018-08-18T04:27:44.354Z,87.32
2018-08-18T04:30:18.591Z,87.46
2018-08-18T04:33:05.030Z,87.47
2018-08-18T04:35:35.076Z,87.86
2018-08-18T04:38:05.541Z,87.87
2018-08-18T04:40:37.406Z,87.87
2018-08-18T04:43:07.516Z,88.18
2018-08-18T04:45:37.683Z,88.33
2018-08-18T04:48:08.153Z,88.29
2018-08-18T04:50:38.323Z,88.34
2018-08-18T04:53:08.308Z,88.81
2018-08-18T04:55:38.335Z,88.68
2018-08-18T04:58:08.318Z,88.52
2018-08-18T05:00:38.324Z,88.50
2018-08-18T05:03:08.953Z,88.68
2018-08-18T05:05:38.992Z,89.07
2018-08-18T05:08:09.068Z,89.03
2018-08-18T05:10:40.490Z,88.95
2018-08-18T05:13:10.567Z,89.09
2018-08-18T05:15:40.624Z,88.70
2018-08-18T05:18:10.675Z,88.41
2018-08-18T05:20:40.696Z,88.41
2018-08-18T05:23:26.933Z,87.90
2018-08-18T05:25:56.986Z,87.83
2018-08-18T05:28:27.009Z,87.49
2018-08-18T05:30:57.071Z,88.03
2018-08-18T05:33:27.081Z,87.08
2018-08-18T05:35:57.126Z,87.16
2018-08-18T05:38:27.119Z,87.17
2018-08-18T05:40:57.227Z,86.93
2018-08-18T05:43:27.246Z,86.66
2018-08-18T05:45:57.213Z,86.58
2018-08-18T05:48:27.202Z,86.37
2018-08-18T05:50:58.108Z,86.64
2018-08-18T05:53:29.201Z,87.15
2018-08-18T05:55:59.872Z,86.78
2018-08-18T05:58:45.710Z,86.75
2018-08-18T06:01:34.143Z,86.22
2018-08-18T06:04:11.265Z,85.21
2018-08-18T06:06:42.005Z,83.92
2018-08-18T06:09:13.483Z,83.82
2018-08-18T06:11:43.719Z,82.52
2018-08-18T06:14:14.636Z,82.67
2018-08-18T06:16:45.200Z,82.72
2018-08-18T06:19:15.268Z,82.49
2018-08-18T06:21:45.267Z,82.20
2018-08-18T06:24:15.288Z,81.28
2018-08-18T06:26:45.304Z,81.27
2018-08-18T06:29:16.630Z,80.14
2018-08-18T06:32:00.159Z,79.64
2018-08-18T06:34:34.581Z,79.25
2018-08-18T06:37:04.654Z,78.96
2018-08-18T06:39:52.729Z,79.62
2018-08-18T06:42:41.254Z,79.18
2018-08-18T06:45:14.360Z,78.45
2018-08-18T06:47:45.000Z,78.66
2018-08-18T06:50:17.502Z,78.11
2018-08-18T06:52:47.961Z,78.57
2018-08-18T06:55:20.025Z,77.39
2018-08-18T06:57:52.708Z,76.31
2018-08-18T07:00:25.170Z,76.98
2018-08-18T07:02:55.218Z,76.10
2018-08-18T07:05:25.228Z,75.24
2018-08-18T07:07:55.353Z,75.65
2018-08-18T07:10:34.384Z,76.01
2018-08-18T07:13:05.756Z,74.80
2018-08-18T07:15:37.129Z,73.73
2018-08-18T07:18:09.316Z,74.54
2018-08-18T07:20:39.467Z,73.00
2018-08-18T07:23:09.855Z,72.96
2018-08-18T07:25:49.418Z,74.12
2018-08-18T07:28:22.505Z,72.98
2018-08-18T07:30:52.643Z,71.81
2018-08-18T07:33:22.778Z,72.20
2018-08-18T07:35:52.822Z,73.09
2018-08-18T07:38:22.822Z,71.63
2018-08-18T07:40:54.843Z,70.45
2018-08-18T07:43:31.784Z,70.55
2018-08-18T07:46:04.263Z,70.71
2018-08-18T07:48:34.347Z,70.35
2018-08-18T07:51:04.532Z,68.56
2018-08-18T07:53:34.615Z,68.44
2018-08-18T07:56:04.676Z,67.43
2018-08-18T07:58:35.190Z,68.09
2018-08-18T08:01:05.242Z,67.68
2018-08-18T08:03:35.256Z,66.80
2018-08-18T08:06:05.212Z,68.23
2018-08-18T08:08:40.343Z,65.91
2018-08-18T08:11:15.164Z,66.21
2018-08-18T08:13:45.155Z,65.60
2018-08-18T08:16:15.189Z,65.84
2018-08-18T08:18:45.665Z,65.45
2018-08-18T08:21:16.093Z,65.01
2018-08-18T08:23:46.235Z,65.20
2018-08-18T08:26:16.317Z,63.70
2018-08-18T08:28:46.423Z,64.39
2018-08-18T08:31:16.430Z,63.46
2018-08-18T08:33:46.525Z,61.89
2018-08-18T08:36:17.528Z,63.54
2018-08-18T08:38:59.025Z,64.37
2018-08-18T08:41:31.391Z,62.60
2018-08-18T08:44:01.782Z,64.88
2018-08-18T08:46:31.830Z,63.71
2018-08-18T08:49:02.552Z,62.34
2018-08-18T08:51:32.655Z,63.72
2018-08-18T08:54:02.680Z,62.26
2018-08-18T08:56:39.085Z,62.35
2018-08-18T08:59:09.243Z,62.16
2018-08-18T09:01:39.583Z,62.39
2018-08-18T09:04:09.676Z,62.33
2018-08-18T09:06:43.710Z,62.08
2018-08-18T09:09:13.878Z,62.31
2018-08-18T09:11:43.933Z,60.90
2018-08-18T09:14:14.009Z,61.61
2018-08-18T09:16:44.180Z,60.16
2018-08-18T09:19:14.493Z,62.81
2018-08-18T09:21:49.644Z,60.57
2018-08-18T09:24:20.892Z,59.82
2018-08-18T09:26:53.870Z,61.37
2018-08-18T09:29:24.539Z,59.08
2018-08-18T09:31:54.728Z,59.36
2018-08-18T09:34:24.852Z,60.36
2018-08-18T09:36:54.899Z,59.37
2018-08-18T09:39:33.742Z,57.95
2018-08-18T09:42:08.136Z,56.88
2018-08-18T09:44:42.406Z,57.70
2018-08-18T09:47:12.635Z,58.30
2018-08-18T09:49:43.145Z,56.27
2018-08-18T09:52:15.840Z,56.34
2018-08-18T09:54:45.941Z,54.07
2018-08-18T09:57:16.156Z,54.82
2018-08-18T09:59:46.349Z,57.01
2018-08-18T10:02:16.488Z,55.70
2018-08-18T10:04:46.567Z,56.40
2018-08-18T10:07:16.671Z,55.23
2018-08-18T10:09:46.715Z,54.89
2018-08-18T10:12:16.877Z,55.28
2018-08-18T10:14:46.932Z,53.02
2018-08-18T10:17:17.033Z,54.11
2018-08-18T10:19:47.125Z,53.70
2018-08-18T10:22:17.212Z,50.31
2018-08-18T10:24:47.271Z,53.55
2018-08-18T10:27:19.055Z,52.80
2018-08-18T10:29:49.081Z,52.05
2018-08-18T10:32:19.110Z,50.75
2018-08-18T10:34:49.213Z,53.51
2018-08-18T10:37:19.298Z,52.15
2018-08-18T10:39:51.209Z,51.88
2018-08-18T10:42:26.243Z,51.40
2018-08-18T10:45:01.541Z,52.92
2018-08-18T10:47:32.117Z,50.39
2018-08-18T10:50:20.461Z,51.47
2018-08-18T10:52:58.664Z,49.92
2018-08-18T10:55:28.783Z,50.82
2018-08-18T10:58:06.951Z,51.08
2018-08-18T11:00:37.119Z,50.80
2018-08-18T11:03:08.367Z,50.42
2018-08-18T11:05:38.372Z,50.15
2018-08-18T11:08:09.384Z,49.20
2018-08-18T11:10:42.110Z,48.73
2018-08-18T11:13:12.117Z,49.64
2018-08-18T11:15:43.366Z,49.33
2018-08-18T11:18:13.474Z,48.83
2018-08-18T11:20:43.541Z,49.72
2018-08-18T11:23:14.557Z,47.03
2018-08-18T11:25:50.178Z,47.57
2018-08-18T11:28:20.970Z,47.78
2018-08-18T11:30:54.135Z,47.71
2018-08-18T11:33:44.118Z,47.74
2018-08-18T11:36:14.265Z,47.44
2018-08-18T11:38:44.338Z,47.86
2018-08-18T11:41:14.350Z,48.98
2018-08-18T11:43:49.585Z,48.16
2018-08-18T11:46:19.624Z,47.67
2018-08-18T11:48:49.647Z,47.29
2018-08-18T11:51:19.722Z,48.68
2018-08-18T11:54:00.843Z,47.25
2018-08-18T11:56:32.156Z,46.66
2018-08-18T11:59:13.661Z,45.43
2018-08-18T12:01:47.177Z,45.85
2018-08-18T12:04:17.694Z,45.56
2018-08-18T12:06:52.729Z,47.04
2018-08-18T12:09:22.751Z,44.30
2018-08-18T12:11:52.972Z,44.51
2018-08-18T12:14:23.301Z,45.96
2018-08-18T12:16:53.483Z,46.31
2018-08-18T12:19:23.514Z,46.51
2018-08-18T12:21:54.804Z,46.73
2018-08-18T12:24:24.845Z,47.04
2018-08-18T12:27:06.742Z,45.29
2018-08-18T12:29:36.798Z,45.80
2018-08-18T12:32:18.538Z,46.11
2018-08-18T12:34:48.569Z,45.81
2018-08-18T12:37:18.751Z,44.52
2018-08-18T12:39:48.751Z,45.12
2018-08-18T12:42:26.722Z,46.11
2018-08-18T12:44:57.726Z,46.33
2018-08-18T12:47:28.015Z,45.41
2018-08-18T12:49:58.068Z,45.90
2018-08-18T12:52:29.199Z,45.41
2018-08-18T12:54:59.178Z,44.94
2018-08-18T12:57:40.929Z,43.89
2018-08-18T13:00:11.099Z,44.59
2018-08-18T13:02:51.443Z,44.47
2018-08-18T13:05:26.467Z,44.91
2018-08-18T13:07:57.124Z,45.94
2018-08-18T13:10:28.444Z,44.96
2018-08-18T13:12:58.680Z,46.17
2018-08-18T13:15:28.711Z,45.86
2018-08-18T13:17:58.730Z,44.75
2018-08-18T13:20:28.693Z,45.70
2018-08-18T13:22:58.731Z,45.85
2018-08-18T13:25:30.191Z,44.67
2018-08-18T13:28:00.284Z,45.01
2018-08-18T13:30:30.261Z,44.27
2018-08-18T13:33:00.463Z,43.87
2018-08-18T13:35:30.515Z,43.06
2018-08-18T13:38:00.528Z,44.54
2018-08-18T13:40:30.595Z,43.57
2018-08-18T13:43:00.646Z,43.85
2018-08-18T13:45:41.786Z,43.97
2018-08-18T13:48:13.445Z,44.15
2018-08-18T13:50:43.516Z,44.45
2018-08-18T13:53:13.537Z,44.11
2018-08-18T13:55:43.598Z,44.54
2018-08-18T13:58:13.784Z,43.99
2018-08-18T14:00:43.821Z,44.50
2018-08-18T14:03:27.995Z,43.49
2018-08-18T14:05:59.104Z,43.80
2018-08-18T14:08:29.107Z,44.19
2018-08-18T14:10:59.241Z,44.44
2018-08-18T14:13:30.105Z,43.08
2018-08-18T14:16:00.209Z,43.89
2018-08-18T14:18:30.268Z,43.58
2018-08-18T14:21:05.566Z,42.81
2018-08-18T14:23:35.585Z,42.29
2018-08-18T14:26:05.721Z,42.81
2018-08-18T14:28:35.823Z,44.11
2018-08-18T14:31:05.925Z,43.88
2018-08-18T14:33:35.933Z,43.56
2018-08-18T14:36:12.436Z,42.95
2018-08-18T14:38:44.449Z,44.04
2018-08-18T14:41:16.504Z,43.78
2018-08-18T14:43:46.529Z,44.62
2018-08-18T14:46:16.669Z,44.14
2018-08-18T14:48:46.638Z,44.66
2018-08-18T14:51:16.719Z,44.37
2018-08-18T14:53:46.732Z,43.83
2018-08-18T14:56:16.769Z,45.30
2018-08-18T14:58:46.935Z,43.75
2018-08-18T15:01:16.875Z,44.56
2018-08-18T15:03:47.152Z,44.76
2018-08-18T15:06:17.210Z,45.93
2018-08-18T15:08:47.279Z,45.71
2018-08-18T15:11:17.304Z,46.67
2018-08-18T15:13:47.403Z,47.27
2018-08-18T15:16:17.403Z,48.29
2018-08-18T15:18:47.517Z,46.29
2018-08-18T15:21:17.555Z,47.53
2018-08-18T15:23:47.608Z,46.46
2018-08-18T15:26:17.629Z,46.48
2018-08-18T15:28:47.676Z,46.41
2018-08-18T15:31:17.707Z,46.14
2018-08-18T15:33:47.758Z,45.23
2018-08-18T15:36:32.139Z,46.01
2018-08-18T15:39:02.255Z,45.33
2018-08-18T15:41:32.273Z,46.00
2018-08-18T15:44:02.389Z,45.82
2018-08-18T15:46:32.392Z,46.25
2018-08-18T15:49:02.558Z,45.84
2018-08-18T15:51:32.597Z,46.19
2018-08-18T15:54:03.770Z,47.29
2018-08-18T15:56:34.995Z,47.46
2018-08-18T15:59:05.347Z,46.93
2018-08-18T16:01:36.390Z,46.96
2018-08-18T16:04:06.544Z,47.50
2018-08-18T16:06:36.533Z,48.07
2018-08-18T16:09:09.423Z,48.07
2018-08-18T16:11:39.398Z,48.32
2018-08-18T16:14:09.442Z,48.20
2018-08-18T16:17:13.670Z,49.20
2018-08-18T16:19:43.691Z,48.64
2018-08-18T16:22:13.692Z,49.64
2018-08-18T16:24:46.508Z,50.17
2018-08-18T16:27:16.542Z,49.74
2018-08-18T16:29:46.580Z,49.23
2018-08-18T16:32:23.209Z,50.20
2018-08-18T16:35:13.416Z,50.28
2018-08-18T16:37:46.290Z,50.31
2018-08-18T16:40:16.415Z,49.91
2018-08-18T16:42:46.406Z,49.98
2018-08-18T16:45:16.423Z,49.94
2018-08-18T16:47:52.402Z,49.30
2018-08-18T16:50:23.306Z,49.87
2018-08-18T16:52:53.299Z,49.50
2018-08-18T16:55:23.323Z,49.32
2018-08-18T16:57:53.322Z,49.61
2018-08-18T17:02:52.355Z,49.01
2018-08-18T17:05:22.386Z,49.61
2018-08-18T17:07:52.446Z,50.27
2018-08-18T17:10:22.404Z,49.97
2018-08-18T17:12:52.454Z,49.95
2018-08-18T17:15:22.475Z,50.24
2018-08-18T17:17:52.486Z,50.69
2018-08-18T17:20:22.430Z,50.14
2018-08-18T17:22:52.454Z,51.00
2018-08-18T17:25:24.861Z,50.98
2018-08-18T17:27:55.004Z,50.67
2018-08-18T17:30:25.040Z,50.41
2018-08-18T17:32:55.120Z,50.86
2018-08-18T17:35:25.112Z,51.55
2018-08-18T17:37:55.139Z,51.59
2018-08-18T17:40:25.170Z,51.34
2018-08-18T17:42:55.269Z,52.01
2018-08-18T17:45:25.353Z,52.52
2018-08-18T17:47:55.487Z,52.64
2018-08-18T17:50:25.585Z,52.12
2018-08-18T17:52:55.785Z,52.30
2018-08-18T17:55:25.932Z,52.39
2018-08-18T17:57:56.150Z,52.40
2018-08-18T18:00:26.407Z,53.07
2018-08-18T18:02:56.680Z,53.06
2018-08-18T18:05:30.612Z,53.38
2018-08-18T18:08:03.862Z,53.40
2018-08-18T18:10:39.300Z,53.87
2018-08-18T18:13:18.637Z,53.99
2018-08-18T18:15:49.017Z,54.77
2018-08-18T18:18:20.438Z,55.06
2018-08-18T18:20:52.131Z,54.82
2018-08-18T18:23:22.918Z,55.19
2018-08-18T18:25:53.070Z,55.08
2018-08-18T18:28:23.237Z,55.27
2018-08-18T18:30:54.590Z,55.45
2018-08-18T18:33:24.798Z,55.97
2018-08-18T18:35:54.930Z,56.19
2018-08-18T18:38:25.061Z,56.63
2018-08-18T18:40:55.112Z,57.50
2018-08-18T18:43:25.260Z,57.33
2018-08-18T18:45:55.465Z,57.87
2018-08-18T18:48:25.531Z,58.72
2018-08-18T18:50:55.741Z,58.67
2018-08-18T18:53:26.306Z,59.34
2018-08-18T18:55:56.445Z,59.48
2018-08-18T18:58:26.582Z,60.21
2018-08-18T19:01:11.252Z,60.45
2018-08-18T19:03:41.307Z,60.72
2018-08-18T19:06:13.860Z,60.82
2018-08-18T19:09:02.525Z,60.94
2018-08-18T19:11:36.603Z,61.44
2018-08-18T19:14:08.580Z,62.48
2018-08-18T19:16:40.338Z,62.27
2018-08-18T19:19:12.151Z,63.35
2018-08-18T19:21:45.380Z,63.17
2018-08-18T19:24:24.916Z,63.00
2018-08-18T19:27:01.188Z,63.05
2018-08-18T19:29:33.559Z,62.85
2018-08-18T19:32:05.108Z,63.25
2018-08-18T19:34:37.259Z,63.35
2018-08-18T19:37:10.126Z,63.45
2018-08-18T19:39:44.165Z,63.81
2018-08-18T19:42:24.065Z,63.99
2018-08-18T19:44:55.011Z,64.28
2018-08-18T19:47:30.132Z,63.56
2018-08-18T19:50:02.363Z,63.91
2018-08-18T19:52:35.028Z,63.96
2018-08-18T19:55:08.801Z,63.86
2018-08-18T19:57:42.857Z,63.81
2018-08-18T20:00:23.387Z,63.42
2018-08-18T20:03:08.108Z,63.90
2018-08-18T20:05:40.568Z,64.01
2018-08-18T20:08:12.715Z,63.68
2018-08-18T20:10:49.806Z,63.58
2018-08-18T20:13:23.128Z,63.23
2018-08-18T20:15:56.369Z,63.09
2018-08-18T20:18:28.879Z,63.55
2018-08-18T20:21:01.780Z,63.57
2018-08-18T20:23:35.372Z,63.58
2018-08-18T20:26:09.951Z,63.49
2018-08-18T20:28:41.320Z,63.53
2018-08-18T20:31:13.780Z,64.25
2018-08-18T20:33:45.791Z,64.43
2018-08-18T20:36:17.508Z,64.70
2018-08-18T20:38:49.641Z,64.92
2018-08-18T20:41:22.389Z,64.88
2018-08-18T20:43:54.196Z,64.91
2018-08-18T20:46:26.863Z,65.08
2018-08-18T20:48:58.889Z,65.07
2018-08-18T20:51:36.082Z,65.00
2018-08-18T20:54:15.150Z,65.97
2018-08-18T20:56:48.188Z,65.46
2018-08-18T20:59:18.318Z,65.58
2018-08-18T21:01:48.357Z,65.45
2018-08-18T21:04:18.467Z,65.54
2018-08-18T21:06:48.528Z,65.94
2018-08-18T21:09:32.024Z,65.78
2018-08-18T21:12:02.060Z,65.58
2018-08-18T21:14:32.199Z,65.14
2018-08-18T21:17:02.291Z,65.62
2018-08-18T21:19:32.414Z,65.82
2018-08-18T21:22:02.440Z,65.69
2018-08-18T21:24:32.504Z,65.82
2018-08-18T21:27:02.601Z,66.10
2018-08-18T21:29:32.663Z,65.57
2018-08-18T21:32:02.708Z,65.84
2018-08-18T21:34:44.307Z,65.58
2018-08-18T21:37:14.441Z,65.63
2018-08-18T21:39:44.560Z,65.64
2018-08-18T21:42:14.602Z,65.36
2018-08-18T21:44:44.710Z,65.44
2018-08-18T21:47:14.757Z,65.58
2018-08-18T21:49:47.283Z,65.22
2018-08-18T21:52:17.679Z,64.92
2018-08-18T21:54:47.770Z,65.12
2018-08-18T21:57:17.811Z,64.55
2018-08-18T22:00:00.390Z,64.42
2018-08-18T22:02:42.271Z,63.95
2018-08-18T22:05:14.839Z,63.96
2018-08-18T22:07:52.263Z,63.70
2018-08-18T22:10:22.624Z,63.29
2018-08-18T22:12:52.728Z,63.63
2018-08-18T22:15:23.305Z,62.72
2018-08-18T22:17:54.152Z,62.80
2018-08-18T22:20:24.681Z,62.72
2018-08-18T22:22:55.404Z,62.60
2018-08-18T22:25:25.512Z,62.16
2018-08-18T22:27:55.714Z,61.53
2018-08-18T22:30:28.457Z,61.10
2018-08-18T22:32:58.572Z,61.12
2018-08-18T22:35:28.700Z,61.04
2018-08-18T22:37:58.803Z,61.54
2018-08-18T22:40:28.900Z,61.25
2018-08-18T22:42:58.935Z,61.69
2018-08-18T22:45:31.344Z,60.70
2018-08-18T22:48:01.497Z,61.11
2018-08-18T22:50:31.675Z,60.92
2018-08-18T22:53:01.781Z,59.75
2018-08-18T22:55:33.147Z,59.29
2018-08-18T22:58:03.427Z,59.88
2018-08-18T23:00:39.612Z,59.07
2018-08-18T23:03:09.815Z,58.35
2018-08-18T23:05:39.927Z,58.87
2018-08-18T23:08:10.163Z,57.94
2018-08-18T23:10:40.283Z,55.72
2018-08-18T23:13:12.079Z,55.45
2018-08-18T23:15:42.149Z,54.94
2018-08-18T23:18:12.334Z,54.94
2018-08-18T23:20:42.430Z,55.74
2018-08-18T23:23:12.574Z,55.68
2018-08-18T23:25:42.663Z,55.31
2018-08-18T23:28:12.717Z,54.54
2018-08-18T23:30:43.589Z,54.87
2018-08-18T23:33:13.719Z,54.45
2018-08-18T23:35:43.766Z,53.77
2018-08-18T23:38:13.810Z,52.74
2018-08-18T23:40:43.854Z,53.61
2018-08-18T23:43:13.993Z,53.75
2018-08-18T23:45:48.985Z,54.22
2018-08-18T23:48:19.044Z,53.92
2018-08-18T23:50:49.082Z,53.59
2018-08-18T23:53:19.498Z,55.05
2018-08-18T23:55:54.670Z,54.48
2018-08-18T23:58:24.771Z,54.91
